Wheatfield, Indiana
Current Conditions -  °F | °C
As of 5:55 AM on Thursday 23 Oct 2014 (Local Time) from KRZL Reporting Station
Haze Haze  
Wind Chill: 36°   Ceiling: 700
Heat Index: 36°   Visibility: 1.7mi
Dew Point: 36°   Wind: 3mph
Humidity: 100%   Direction: 130°SE
Pressure: 30.24"   Gusts: NA
Location:  41.19°N, 87.06°W
Report Text: KRZL 231055Z AUTO 13003KT 1 3/4SM BR VV007 02/02 A3024 RMK AO2
Loading
Personal Weather Stations






























Interactive Weather Map
Tropical Storm Tracking
New forecast layout! Learn more

10-Day Weather Forecast

Advertisements
Track Severe Weather on mobile